Time;durP1;ratioP1;P1;durP2;ratioP2;P2;SDS_P1;SDS_P2;PMS_P1;PMS_P2;Temp;Humidity;BMP_temperature;BMP_pressure;BME280_temperature;BME280_humidity;BME280_pressure;Samples;Min_cycle;Max_cycle;Signal;HPM_P1;HPM_P2
2020/12/18 00:00:22;;;;;;;18.73;13.43;;;4.50;99.90;;;;;;5085759;28;20563;-76
2020/12/18 00:02:48;;;;;;;22.70;14.57;;;4.50;99.90;;;;;;5086990;28;20334;-74
2020/12/18 00:05:15;;;;;;;25.77;17.73;;;4.50;99.90;;;;;;5082752;28;20204;-74
2020/12/18 00:07:42;;;;;;;25.20;16.03;;;4.50;99.90;;;;;;5089394;28;20247;-75
2020/12/18 00:10:09;;;;;;;20.20;13.53;;;4.50;99.90;;;;;;5083240;28;20709;-74
2020/12/18 00:12:37;;;;;;;22.47;14.67;;;4.50;99.90;;;;;;5084536;28;20282;-74
2020/12/18 00:15:06;;;;;;;20.67;13.07;;;4.40;99.90;;;;;;5088053;28;20236;-75
2020/12/18 00:17:33;;;;;;;20.13;12.37;;;4.40;99.90;;;;;;5084562;28;20205;-75
2020/12/18 00:19:59;;;;;;;19.00;13.27;;;4.40;99.90;;;;;;5087222;28;20804;-74
2020/12/18 00:22:32;;;;;;;19.03;13.23;;;4.40;99.90;;;;;;5086936;28;20224;-75
2020/12/18 00:24:58;;;;;;;22.70;14.53;;;4.40;99.90;;;;;;5084224;28;20209;-74
2020/12/18 00:27:25;;;;;;;23.50;13.63;;;4.40;99.90;;;;;;5082052;28;20293;-75
2020/12/18 00:29:52;;;;;;;22.07;15.23;;;4.40;99.90;;;;;;5078238;28;20213;-75
2020/12/18 00:32:19;;;;;;;22.20;15.27;;;4.50;99.90;;;;;;5077757;28;20229;-75
2020/12/18 00:34:45;;;;;;;26.27;15.37;;;4.50;99.90;;;;;;5082247;28;20225;-74
2020/12/18 00:37:12;;;;;;;21.83;15.07;;;4.50;99.90;;;;;;5083261;28;20254;-74
2020/12/18 00:39:39;;;;;;;25.10;15.57;;;4.40;99.90;;;;;;5086816;28;20669;-75
2020/12/18 00:42:06;;;;;;;25.07;16.03;;;4.50;99.90;;;;;;5090278;28;20201;-74
2020/12/18 00:44:34;;;;;;;24.07;15.70;;;4.50;99.90;;;;;;5089575;28;20202;-74
2020/12/18 00:47:01;;;;;;;25.80;16.87;;;4.60;99.90;;;;;;5086066;28;20232;-75
2020/12/18 00:49:28;;;;;;;27.70;16.60;;;4.60;99.90;;;;;;5080331;28;20251;-74
2020/12/18 00:51:54;;;;;;;27.37;17.10;;;4.50;99.90;;;;;;5090120;28;20662;-75
2020/12/18 00:54:20;;;;;;;33.57;18.60;;;4.60;99.90;;;;;;5083998;28;20756;-73
2020/12/18 00:56:47;;;;;;;33.63;20.73;;;4.50;99.90;;;;;;5081559;28;20293;-75
2020/12/18 00:59:13;;;;;;;37.90;21.00;;;4.50;99.90;;;;;;5079206;28;20597;-75
2020/12/18 01:01:40;;;;;;;40.30;23.00;;;4.60;99.90;;;;;;5089254;28;20259;-74
2020/12/18 01:04:08;;;;;;;44.60;24.87;;;4.50;99.90;;;;;;5083324;28;20237;-74
2020/12/18 01:06:34;;;;;;;43.43;23.90;;;4.60;99.90;;;;;;5084210;28;20697;-75
2020/12/18 01:09:01;;;;;;;44.63;25.20;;;4.50;99.90;;;;;;5086571;28;20201;-75
2020/12/18 01:11:27;;;;;;;49.63;26.23;;;4.50;99.90;;;;;;5087807;28;20260;-76
2020/12/18 01:13:53;;;;;;;45.03;25.77;;;4.50;99.90;;;;;;5083195;28;20309;-76
2020/12/18 01:16:20;;;;;;;45.10;26.47;;;4.50;99.90;;;;;;5080940;28;20729;-75
2020/12/18 01:18:47;;;;;;;50.30;26.63;;;4.50;99.90;;;;;;5082982;28;20291;-75
2020/12/18 01:21:14;;;;;;;45.60;26.03;;;4.50;99.90;;;;;;5082218;28;20209;-74
2020/12/18 01:23:41;;;;;;;54.40;27.83;;;4.50;99.90;;;;;;5086321;28;20204;-75
2020/12/18 01:26:07;;;;;;;49.43;26.67;;;4.50;99.90;;;;;;5085000;28;20313;-74
2020/12/18 01:28:34;;;;;;;58.17;29.30;;;4.50;99.90;;;;;;5078313;28;20225;-75
2020/12/18 01:31:00;;;;;;;54.57;29.50;;;4.50;99.90;;;;;;5082969;28;20654;-74
2020/12/18 01:33:27;;;;;;;54.93;28.23;;;4.60;99.90;;;;;;5082516;28;20762;-75
2020/12/18 01:35:53;;;;;;;55.07;29.23;;;4.50;99.90;;;;;;5079647;28;20300;-75
2020/12/18 01:38:22;;;;;;;52.00;27.70;;;4.60;99.90;;;;;;5084897;28;20243;-75
2020/12/18 01:40:48;;;;;;;51.40;27.47;;;4.50;99.90;;;;;;5084928;28;20205;-74
2020/12/18 01:43:15;;;;;;;49.90;28.27;;;4.60;99.90;;;;;;5082886;28;20268;-76
2020/12/18 01:45:41;;;;;;;49.17;27.93;;;4.60;99.90;;;;;;5083301;28;20212;-75
2020/12/18 01:48:07;;;;;;;50.63;28.57;;;4.60;99.90;;;;;;5083904;28;20665;-74
2020/12/18 01:50:34;;;;;;;49.47;27.37;;;4.60;99.90;;;;;;5081477;28;20211;-75
2020/12/18 01:53:03;;;;;;;49.50;26.37;;;4.50;99.90;;;;;;5083777;28;20315;-75
2020/12/18 01:55:30;;;;;;;53.03;27.00;;;4.50;99.90;;;;;;5079927;28;20216;-75
2020/12/18 01:57:58;;;;;;;46.80;27.20;;;4.60;99.90;;;;;;5082325;28;20291;-74
2020/12/18 02:00:26;;;;;;;48.33;26.23;;;4.50;99.90;;;;;;5081522;28;20232;-77
2020/12/18 02:02:54;;;;;;;47.13;26.47;;;4.50;99.90;;;;;;5079664;28;20228;-77
2020/12/18 02:05:20;;;;;;;47.10;25.53;;;4.50;99.90;;;;;;5082923;28;20209;-75
2020/12/18 02:08:00;;;;;;;47.13;25.93;;;4.50;99.90;;;;;;5083849;28;20213;-75
2020/12/18 02:10:27;;;;;;;46.77;25.53;;;4.40;99.90;;;;;;5079591;28;20204;-74
2020/12/18 02:12:56;;;;;;;47.10;27.43;;;4.40;99.90;;;;;;5083475;28;20608;-74
2020/12/18 02:15:23;;;;;;;52.93;27.53;;;4.40;99.90;;;;;;5080082;28;20231;-75
2020/12/18 02:17:50;;;;;;;49.70;25.83;;;4.40;99.90;;;;;;5091242;28;20243;-75
2020/12/18 02:20:17;;;;;;;46.87;27.83;;;4.40;99.90;;;;;;5085568;28;20653;-76
2020/12/18 02:22:47;;;;;;;47.83;26.13;;;4.40;99.90;;;;;;5081614;28;20293;-76
2020/12/18 02:25:14;;;;;;;46.57;26.17;;;4.40;99.90;;;;;;5085974;28;20597;-76
2020/12/18 02:27:42;;;;;;;49.80;26.33;;;4.40;99.90;;;;;;5082541;28;20196;-75
2020/12/18 02:30:10;;;;;;;47.23;25.33;;;4.40;99.90;;;;;;5084670;28;20209;-76
2020/12/18 02:32:36;;;;;;;47.17;26.50;;;4.40;99.90;;;;;;5084701;28;20221;-75
2020/12/18 02:35:03;;;;;;;47.10;25.37;;;4.40;99.90;;;;;;5082815;28;20228;-75
2020/12/18 02:37:30;;;;;;;48.27;26.57;;;4.40;99.90;;;;;;5088997;28;20208;-75
2020/12/18 02:39:57;;;;;;;49.83;26.37;;;4.40;99.90;;;;;;5086396;28;20214;-76
2020/12/18 02:42:23;;;;;;;49.63;27.00;;;4.40;99.90;;;;;;5080499;28;20566;-76
2020/12/18 02:44:51;;;;;;;53.57;27.77;;;4.40;99.90;;;;;;5081476;28;20236;-76
2020/12/18 02:47:18;;;;;;;45.27;26.07;;;4.40;99.90;;;;;;5077657;28;20625;-76
2020/12/18 02:49:44;;;;;;;48.63;25.93;;;4.40;99.90;;;;;;5080534;28;20240;-77
2020/12/18 02:52:11;;;;;;;49.83;27.27;;;4.40;99.90;;;;;;5086238;28;20228;-76
2020/12/18 02:54:37;;;;;;;48.80;25.60;;;4.40;99.90;;;;;;5084811;28;20236;-75
2020/12/18 02:57:04;;;;;;;53.93;27.00;;;4.40;99.90;;;;;;5081781;28;20241;-75
2020/12/18 02:59:30;;;;;;;52.00;26.03;;;4.30;99.90;;;;;;5081665;28;20296;-76
2020/12/18 03:01:58;;;;;;;49.83;26.13;;;4.40;99.90;;;;;;5080769;28;20291;-76
2020/12/18 03:04:25;;;;;;;47.83;25.60;;;4.30;99.90;;;;;;5082205;28;20237;-76
2020/12/18 03:06:51;;;;;;;51.90;27.23;;;4.40;99.90;;;;;;5084949;28;20228;-76
2020/12/18 03:09:17;;;;;;;51.43;27.67;;;4.30;99.90;;;;;;5087254;28;20287;-76
2020/12/18 03:11:45;;;;;;;50.27;26.00;;;4.40;99.90;;;;;;5083278;28;20229;-76
2020/12/18 03:14:11;;;;;;;50.60;27.43;;;4.40;99.90;;;;;;5082857;28;20270;-76
2020/12/18 03:16:38;;;;;;;51.43;26.40;;;4.40;99.90;;;;;;5087665;28;20299;-77
2020/12/18 03:19:06;;;;;;;47.97;26.27;;;4.40;99.90;;;;;;5083442;28;20787;-76
2020/12/18 03:21:33;;;;;;;51.70;27.47;;;4.50;99.90;;;;;;5088277;28;20283;-76
2020/12/18 03:23:59;;;;;;;53.37;29.10;;;4.50;99.90;;;;;;5085165;28;20200;-76
2020/12/18 03:26:25;;;;;;;49.87;26.33;;;4.50;99.90;;;;;;5082288;28;20221;-76
2020/12/18 03:28:52;;;;;;;54.33;27.30;;;4.50;99.90;;;;;;5088296;28;20247;-77
2020/12/18 03:31:18;;;;;;;49.60;27.53;;;4.50;99.90;;;;;;5086636;28;20240;-76
2020/12/18 03:33:45;;;;;;;50.77;28.07;;;4.50;99.90;;;;;;5084421;28;20811;-77
2020/12/18 03:36:13;;;;;;;50.97;27.70;;;4.50;99.90;;;;;;5094011;28;20314;-76
2020/12/18 03:38:39;;;;;;;50.43;27.47;;;4.50;99.90;;;;;;5088370;28;20223;-76
2020/12/18 03:41:06;;;;;;;48.63;26.10;;;4.50;99.90;;;;;;5082329;28;20205;-77
2020/12/18 03:43:33;;;;;;;47.33;26.77;;;4.50;99.90;;;;;;5086623;28;20212;-76
2020/12/18 03:46:00;;;;;;;54.37;28.40;;;4.50;99.90;;;;;;5083695;28;20205;-74
2020/12/18 03:48:27;;;;;;;49.33;27.33;;;4.60;99.90;;;;;;5087473;28;20225;-75
2020/12/18 03:50:53;;;;;;;51.33;26.80;;;4.50;99.90;;;;;;5085883;28;20259;-76
2020/12/18 03:53:20;;;;;;;48.63;27.50;;;4.60;99.90;;;;;;5084311;28;20232;-75
2020/12/18 03:55:47;;;;;;;51.50;27.77;;;4.50;99.90;;;;;;5092257;28;20283;-75
2020/12/18 03:58:13;;;;;;;47.53;26.43;;;4.50;99.90;;;;;;5085609;28;20304;-75
2020/12/18 04:00:41;;;;;;;54.57;27.80;;;4.60;99.90;;;;;;5085839;28;20624;-76
2020/12/18 04:03:07;;;;;;;46.03;25.90;;;4.50;99.90;;;;;;5084859;28;20233;-76
2020/12/18 04:05:35;;;;;;;53.03;27.63;;;4.60;99.90;;;;;;5086647;28;20229;-77
2020/12/18 04:08:01;;;;;;;50.93;26.77;;;4.50;99.90;;;;;;5090387;28;20205;-77
2020/12/18 04:10:28;;;;;;;50.00;27.00;;;4.60;99.90;;;;;;5083937;28;20240;-75
2020/12/18 04:12:55;;;;;;;46.40;24.97;;;4.60;99.90;;;;;;5084352;28;20225;-75
2020/12/18 04:15:21;;;;;;;48.27;26.90;;;4.60;99.90;;;;;;5091009;28;20295;-75
2020/12/18 04:17:47;;;;;;;45.77;26.40;;;4.50;99.90;;;;;;5085792;28;20638;-75
2020/12/18 04:20:14;;;;;;;46.53;25.10;;;4.50;99.90;;;;;;5088798;28;20714;-75
2020/12/18 04:22:40;;;;;;;47.37;26.13;;;4.60;99.90;;;;;;5086522;28;20312;-75
2020/12/18 04:25:07;;;;;;;46.03;25.93;;;4.60;99.90;;;;;;5085122;28;20209;-75
2020/12/18 04:27:35;;;;;;;50.63;26.47;;;4.60;99.90;;;;;;5083907;28;20201;-75
2020/12/18 04:30:01;;;;;;;47.53;25.30;;;4.60;99.90;;;;;;5080736;28;20200;-75
2020/12/18 04:32:28;;;;;;;46.00;25.10;;;4.60;99.90;;;;;;5080464;28;20225;-75
2020/12/18 04:34:54;;;;;;;44.53;25.70;;;4.70;99.90;;;;;;5084633;28;20247;-74
2020/12/18 04:37:20;;;;;;;45.00;25.37;;;4.60;99.90;;;;;;5085917;28;20198;-74
2020/12/18 04:39:47;;;;;;;47.10;25.30;;;4.70;99.90;;;;;;5077459;28;20207;-74
2020/12/18 04:42:13;;;;;;;42.20;25.17;;;4.70;99.90;;;;;;5082668;28;20695;-75
2020/12/18 04:44:41;;;;;;;43.70;24.30;;;4.70;99.90;;;;;;5075592;28;20292;-75
2020/12/18 04:47:13;;;;;;;49.70;25.90;;;4.70;99.90;;;;;;5085169;28;20568;-75
2020/12/18 04:49:42;;;;;;;48.27;26.07;;;4.70;99.90;;;;;;5081374;28;20265;-75
2020/12/18 04:52:12;;;;;;;48.27;25.77;;;4.70;99.90;;;;;;5086511;28;20257;-75
2020/12/18 04:54:41;;;;;;;43.90;25.47;;;4.70;99.90;;;;;;5084570;28;20232;-75
2020/12/18 04:57:10;;;;;;;47.20;26.00;;;4.70;99.90;;;;;;5076737;28;20693;-74
2020/12/18 04:59:43;;;;;;;48.20;25.60;;;4.80;99.90;;;;;;5086048;28;20204;-75
2020/12/18 05:02:10;;;;;;;43.80;25.23;;;4.80;99.90;;;;;;5081986;28;20248;-76
2020/12/18 05:04:41;;;;;;;41.27;24.30;;;4.80;99.90;;;;;;5083082;28;20226;-75
2020/12/18 05:07:08;;;;;;;44.27;24.70;;;4.80;99.90;;;;;;5081813;28;20213;-75
2020/12/18 05:09:34;;;;;;;44.50;25.83;;;4.80;99.90;;;;;;5084673;28;20657;-76
2020/12/18 05:12:05;;;;;;;43.47;24.77;;;4.80;99.90;;;;;;5082837;28;20231;-75
2020/12/18 05:14:32;;;;;;;40.50;23.47;;;4.70;99.90;;;;;;5076932;28;20231;-75
2020/12/18 05:17:05;;;;;;;39.67;24.10;;;4.90;99.90;;;;;;5079956;28;20243;-76
2020/12/18 05:19:36;;;;;;;41.23;23.70;;;4.80;99.90;;;;;;5084110;28;20197;-76
2020/12/18 05:22:05;;;;;;;36.40;22.60;;;4.70;99.90;;;;;;5084246;28;20219;-76
2020/12/18 05:24:32;;;;;;;41.63;23.30;;;4.80;99.90;;;;;;5084167;28;20244;-75
2020/12/18 05:27:00;;;;;;;38.47;22.73;;;4.80;99.90;;;;;;5088070;28;20198;-75
2020/12/18 05:29:28;;;;;;;38.23;23.33;;;4.80;99.90;;;;;;5085000;28;20260;-75
2020/12/18 05:31:56;;;;;;;34.13;21.27;;;4.80;99.90;;;;;;5085857;28;20226;-75
2020/12/18 05:34:22;;;;;;;36.60;22.43;;;4.80;99.90;;;;;;5077020;28;20233;-74
2020/12/18 05:36:50;;;;;;;39.37;21.83;;;4.80;99.90;;;;;;5084697;28;20287;-74
2020/12/18 05:39:17;;;;;;;39.40;23.57;;;4.80;99.90;;;;;;5083581;28;20274;-74
2020/12/18 05:41:45;;;;;;;38.00;22.77;;;4.80;99.90;;;;;;5083804;28;20296;-75
2020/12/18 05:44:12;;;;;;;37.77;21.53;;;4.80;99.90;;;;;;5082348;28;20213;-74
2020/12/18 05:46:40;;;;;;;38.00;21.50;;;4.80;99.90;;;;;;5086439;28;20239;-74
2020/12/18 05:49:08;;;;;;;34.97;21.83;;;4.80;99.90;;;;;;5083830;28;20665;-74
2020/12/18 05:51:36;;;;;;;35.40;21.37;;;4.80;99.90;;;;;;5081114;28;20209;-74
2020/12/18 05:54:12;;;;;;;38.13;23.03;;;4.80;99.90;;;;;;5087104;28;20285;-74
2020/12/18 05:56:39;;;;;;;39.53;21.87;;;4.80;99.90;;;;;;5079050;28;20632;-74
2020/12/18 05:59:08;;;;;;;37.60;22.07;;;4.90;99.90;;;;;;5082973;28;20205;-75
2020/12/18 06:01:41;;;;;;;41.40;22.97;;;4.90;99.90;;;;;;5080242;28;20581;-76
2020/12/18 06:04:15;;;;;;;43.03;22.47;;;4.80;99.90;;;;;;5086265;28;20644;-73
2020/12/18 06:06:44;;;;;;;43.00;23.70;;;4.80;99.90;;;;;;5080714;28;20240;-74
2020/12/18 06:09:13;;;;;;;43.33;22.53;;;4.80;99.90;;;;;;5084048;28;20216;-74
2020/12/18 06:11:39;;;;;;;46.37;23.57;;;4.80;99.90;;;;;;5083068;28;20225;-75
2020/12/18 06:14:08;;;;;;;42.27;22.10;;;4.90;99.90;;;;;;5084893;28;20650;-75
2020/12/18 06:16:41;;;;;;;43.40;22.13;;;4.80;99.90;;;;;;5080663;28;20238;-74
2020/12/18 06:19:09;;;;;;;43.47;23.37;;;4.90;99.90;;;;;;5083387;28;20744;-74
2020/12/18 06:21:35;;;;;;;46.40;24.00;;;4.90;99.90;;;;;;5087985;28;20232;-74
2020/12/18 06:24:03;;;;;;;43.77;24.27;;;4.90;99.90;;;;;;5083292;28;20611;-75
2020/12/18 06:26:31;;;;;;;49.47;24.30;;;4.90;99.90;;;;;;5079207;28;20280;-75
2020/12/18 06:29:05;;;;;;;46.23;23.73;;;4.80;99.90;;;;;;5082199;28;20211;-75
2020/12/18 06:31:33;;;;;;;44.23;24.97;;;4.90;99.90;;;;;;5078311;28;20201;-75
2020/12/18 06:34:01;;;;;;;53.43;25.43;;;4.90;99.90;;;;;;5081133;28;20241;-75
2020/12/18 06:36:57;;;;;;;47.03;23.80;;;4.90;99.90;;;;;;5082338;28;20221;-75
2020/12/18 06:39:25;;;;;;;51.63;24.83;;;4.90;99.90;;;;;;5080421;28;20209;-76
2020/12/18 06:42:11;;;;;;;44.83;23.20;;;4.90;99.90;;;;;;5089308;28;20267;-76
2020/12/18 06:44:39;;;;;;;52.53;24.83;;;5.00;99.90;;;;;;5081962;28;20197;-76
2020/12/18 06:47:11;;;;;;;44.00;23.53;;;5.00;99.90;;;;;;5085030;28;20232;-79
2020/12/18 06:50:14;;;;;;;46.53;24.73;;;5.00;99.90;;;;;;5089303;28;20197;-74
2020/12/18 06:52:46;;;;;;;52.53;24.20;;;4.90;99.90;;;;;;5083234;28;20235;-75
2020/12/18 06:55:15;;;;;;;46.30;23.37;;;5.00;99.90;;;;;;5094947;28;20728;-74
2020/12/18 06:57:43;;;;;;;50.50;24.67;;;4.90;99.90;;;;;;5095895;28;20246;-76
2020/12/18 07:00:30;;;;;;;46.43;23.90;;;4.90;99.90;;;;;;5109141;28;20211;-82
2020/12/18 07:02:57;;;;;;;46.93;23.93;;;4.90;99.90;;;;;;5091815;28;20235;-76
2020/12/18 07:05:32;;;;;;;42.47;22.43;;;4.90;99.90;;;;;;5095278;28;20224;-77
2020/12/18 07:08:01;;;;;;;41.90;23.77;;;4.90;99.90;;;;;;5105659;28;20203;-78
2020/12/18 07:10:28;;;;;;;45.27;24.13;;;4.90;99.90;;;;;;5102551;28;20645;-77
2020/12/18 07:12:58;;;;;;;44.70;22.90;;;4.90;99.90;;;;;;5091799;28;20298;-77
2020/12/18 07:15:46;;;;;;;42.63;23.27;;;5.00;99.90;;;;;;5099984;28;20276;-77
2020/12/18 07:18:15;;;;;;;47.60;24.07;;;5.00;99.90;;;;;;5089162;28;20208;-75
2020/12/18 07:20:48;;;;;;;49.13;22.37;;;5.00;99.90;;;;;;5097174;28;20200;-77
2020/12/18 07:23:15;;;;;;;44.47;23.50;;;5.00;99.90;;;;;;5104321;28;20201;-76
2020/12/18 07:25:42;;;;;;;46.43;23.77;;;5.00;99.90;;;;;;5088198;28;20255;-77
2020/12/18 07:28:10;;;;;;;43.87;24.03;;;5.00;99.90;;;;;;5099743;28;20219;-78
2020/12/18 07:30:42;;;;;;;39.73;23.23;;;5.10;99.90;;;;;;5098549;28;20208;-78
2020/12/18 07:33:13;;;;;;;45.97;23.10;;;5.10;99.90;;;;;;5109888;28;20227;-79
2020/12/18 07:35:42;;;;;;;42.00;22.93;;;5.10;99.90;;;;;;5114192;28;20192;-79
2020/12/18 07:38:13;;;;;;;42.70;23.63;;;5.10;99.90;;;;;;5105612;28;20209;-76
2020/12/18 07:40:40;;;;;;;46.13;23.87;;;5.20;99.90;;;;;;5104668;28;20205;-80
2020/12/18 07:43:09;;;;;;;39.27;22.33;;;5.10;99.90;;;;;;5104106;28;20247;-77
2020/12/18 07:45:42;;;;;;;46.37;23.93;;;5.20;99.90;;;;;;5113367;28;20201;-79
2020/12/18 07:48:15;;;;;;;40.60;23.27;;;5.20;99.90;;;;;;5109339;28;20184;-81
2020/12/18 07:50:54;;;;;;;46.07;23.83;;;5.20;99.90;;;;;;5100239;28;20262;-82
2020/12/18 07:53:21;;;;;;;50.47;24.07;;;5.20;99.90;;;;;;5093273;28;20235;-75
2020/12/18 07:56:03;;;;;;;49.63;23.67;;;5.30;99.90;;;;;;5094384;28;20205;-75
2020/12/18 07:58:30;;;;;;;46.83;25.50;;;5.30;99.90;;;;;;5102085;28;20231;-75
2020/12/18 08:01:12;;;;;;;49.80;24.93;;;5.30;99.90;;;;;;5091473;28;20212;-76
2020/12/18 08:03:42;;;;;;;44.17;24.90;;;5.30;99.90;;;;;;5101856;28;20232;-76
2020/12/18 08:06:16;;;;;;;43.00;22.90;;;5.30;99.90;;;;;;5100772;28;20295;-73
2020/12/18 08:08:47;;;;;;;45.57;22.37;;;5.40;99.90;;;;;;5085967;28;20220;-73
2020/12/18 08:11:15;;;;;;;43.07;23.67;;;5.30;99.90;;;;;;5085507;28;20251;-74
2020/12/18 08:13:42;;;;;;;49.47;23.97;;;5.30;99.90;;;;;;5098081;28;20641;-76
2020/12/18 08:16:11;;;;;;;46.60;24.47;;;5.40;99.90;;;;;;5091725;28;20250;-78
2020/12/18 08:18:43;;;;;;;44.43;24.03;;;5.40;99.90;;;;;;5091639;28;20699;-78
2020/12/18 08:21:09;;;;;;;45.37;24.67;;;5.50;99.90;;;;;;5091867;28;20250;-77
2020/12/18 08:23:39;;;;;;;48.60;25.50;;;5.50;99.90;;;;;;5084642;28;20213;-78
2020/12/18 08:26:07;;;;;;;48.60;25.40;;;5.50;99.90;;;;;;5097953;28;20312;-79
2020/12/18 08:28:35;;;;;;;47.67;24.27;;;5.40;99.90;;;;;;5100669;28;20204;-79
2020/12/18 08:31:06;;;;;;;53.10;26.30;;;5.60;99.90;;;;;;5093864;28;20232;-80
2020/12/18 08:33:47;;;;;;;49.80;25.50;;;5.60;99.90;;;;;;5091045;28;20212;-76
2020/12/18 08:36:15;;;;;;;52.37;24.80;;;5.60;99.90;;;;;;5083980;28;20174;-79
2020/12/18 08:38:58;;;;;;;52.93;25.67;;;5.60;99.90;;;;;;5091287;28;20220;-80
2020/12/18 08:41:25;;;;;;;61.03;27.70;;;5.60;99.90;;;;;;5092784;28;20209;-81
2020/12/18 08:44:05;;;;;;;56.30;27.70;;;5.60;99.90;;;;;;5096888;28;20635;-74
2020/12/18 08:46:33;;;;;;;58.63;27.17;;;5.60;99.90;;;;;;5088023;28;20238;-74
2020/12/18 08:49:13;;;;;;;61.70;27.77;;;5.70;99.90;;;;;;5087615;28;20292;-76
2020/12/18 08:51:40;;;;;;;62.50;27.50;;;5.60;99.90;;;;;;5103441;28;20294;-76
2020/12/18 08:54:30;;;;;;;57.27;26.50;;;5.70;99.90;;;;;;5089945;28;20263;-76
2020/12/18 08:57:16;;;;;;;60.87;27.03;;;5.60;99.90;;;;;;5079897;28;20204;-74
2020/12/18 09:00:00;;;;;;;58.57;26.77;;;5.70;99.90;;;;;;5085132;28;20263;-74
2020/12/18 09:02:27;;;;;;;52.43;26.93;;;5.70;99.90;;;;;;5081370;28;20237;-72
2020/12/18 09:05:18;;;;;;;55.90;26.97;;;5.80;99.90;;;;;;5088786;28;20208;-75
2020/12/18 09:07:49;;;;;;;63.50;28.40;;;5.80;99.90;;;;;;5085199;28;20205;-72
2020/12/18 09:10:30;;;;;;;51.07;26.03;;;5.80;99.90;;;;;;5088950;28;20347;-74
2020/12/18 09:12:57;;;;;;;51.27;26.60;;;5.80;99.90;;;;;;5085203;28;20233;-74
2020/12/18 09:15:25;;;;;;;51.33;25.37;;;5.90;99.90;;;;;;5085604;28;20243;-74
2020/12/18 09:17:59;;;;;;;52.37;25.50;;;5.90;99.90;;;;;;5087681;28;20216;-74
2020/12/18 09:20:28;;;;;;;52.50;27.67;;;5.90;99.90;;;;;;5097717;28;20209;-74
2020/12/18 09:22:55;;;;;;;50.37;26.00;;;5.90;99.90;;;;;;5098363;28;20227;-77
2020/12/18 09:25:22;;;;;;;54.53;26.77;;;5.90;99.90;;;;;;5081650;28;20242;-73
2020/12/18 09:27:52;;;;;;;49.17;25.33;;;6.00;99.90;;;;;;5094329;28;20265;-72
2020/12/18 09:30:22;;;;;;;49.43;26.43;;;6.00;99.90;;;;;;5078670;28;20197;-74
2020/12/18 09:33:25;;;;;;;52.37;26.10;;;6.00;99.90;;;;;;5094582;28;20231;-74
2020/12/18 09:35:58;;;;;;;50.07;25.90;;;6.00;99.90;;;;;;5084507;28;20215;-74
2020/12/18 09:38:26;;;;;;;50.80;26.63;;;6.00;99.90;;;;;;5097243;28;20687;-73
2020/12/18 09:40:54;;;;;;;47.17;26.53;;;6.00;99.90;;;;;;5086784;28;20274;-73
2020/12/18 09:43:21;;;;;;;50.00;26.40;;;6.10;99.90;;;;;;5094625;28;20614;-75
2020/12/18 09:45:48;;;;;;;56.73;28.23;;;6.10;99.90;;;;;;5088003;28;20239;-74
2020/12/18 09:48:14;;;;;;;54.00;26.50;;;6.20;99.90;;;;;;5086374;28;20234;-74
2020/12/18 09:50:42;;;;;;;49.13;26.03;;;6.20;99.90;;;;;;5090382;28;20204;-74
2020/12/18 09:53:10;;;;;;;50.73;26.97;;;6.30;99.90;;;;;;5087608;28;20216;-74
2020/12/18 09:55:37;;;;;;;49.47;26.00;;;6.30;99.90;;;;;;5083708;28;20209;-73
2020/12/18 09:58:05;;;;;;;46.90;27.43;;;6.30;99.90;;;;;;5081095;28;20217;-73
2020/12/18 10:00:32;;;;;;;49.97;26.83;;;6.30;99.90;;;;;;5078971;28;20209;-73
2020/12/18 10:03:00;;;;;;;45.33;25.90;;;6.30;99.90;;;;;;5078463;28;20233;-74
2020/12/18 10:05:27;;;;;;;49.57;27.90;;;6.30;99.90;;;;;;5085630;28;20296;-74
2020/12/18 10:07:54;;;;;;;51.63;28.57;;;6.30;99.90;;;;;;5096974;28;20236;-74
2020/12/18 10:10:21;;;;;;;50.60;27.67;;;6.30;99.90;;;;;;5079344;28;20662;-75
2020/12/18 10:12:49;;;;;;;50.17;28.00;;;6.30;99.90;;;;;;5080628;28;20247;-74
2020/12/18 10:15:16;;;;;;;53.90;27.43;;;6.30;99.90;;;;;;5093122;28;20681;-75
2020/12/18 10:17:42;;;;;;;47.10;24.93;;;6.30;99.90;;;;;;5082137;28;20214;-73
2020/12/18 10:20:09;;;;;;;51.67;27.53;;;6.40;99.90;;;;;;5083541;28;20237;-75
2020/12/18 10:22:35;;;;;;;48.33;26.90;;;6.40;99.90;;;;;;5082177;28;20284;-74
2020/12/18 10:25:01;;;;;;;48.53;26.57;;;6.50;99.90;;;;;;5079094;28;20312;-75
2020/12/18 10:27:31;;;;;;;54.27;28.07;;;6.50;99.90;;;;;;5088585;28;20684;-75
2020/12/18 10:29:58;;;;;;;47.77;27.50;;;6.50;99.90;;;;;;5079420;28;20240;-75
2020/12/18 10:32:28;;;;;;;47.97;26.57;;;6.60;99.90;;;;;;5096021;28;20204;-74
2020/12/18 10:34:55;;;;;;;45.17;25.13;;;6.60;99.90;;;;;;5084699;28;20225;-75
2020/12/18 10:37:22;;;;;;;49.83;27.43;;;6.60;99.90;;;;;;5077420;28;20584;-75
2020/12/18 10:39:49;;;;;;;43.83;25.43;;;6.60;99.90;;;;;;5086805;28;20220;-73
2020/12/18 10:42:15;;;;;;;47.80;26.97;;;6.60;99.90;;;;;;5082925;28;20258;-74
2020/12/18 10:44:44;;;;;;;59.50;34.53;;;6.60;99.90;;;;;;5091994;28;20271;-74
2020/12/18 10:47:11;;;;;;;60.20;33.60;;;6.60;99.90;;;;;;5093083;28;20240;-73
2020/12/18 10:49:38;;;;;;;50.77;27.83;;;6.60;99.90;;;;;;5081011;28;20205;-73
2020/12/18 10:52:05;;;;;;;46.73;28.83;;;6.60;99.90;;;;;;5084542;28;20209;-74
2020/12/18 10:54:32;;;;;;;46.00;26.83;;;6.60;99.90;;;;;;5083794;28;20231;-74
2020/12/18 10:56:59;;;;;;;44.33;26.53;;;6.70;99.90;;;;;;5084054;28;20204;-72
2020/12/18 10:59:26;;;;;;;49.47;26.67;;;6.70;99.90;;;;;;5087825;28;20236;-74
2020/12/18 11:01:54;;;;;;;46.00;26.50;;;6.80;99.90;;;;;;5084454;28;20204;-77
2020/12/18 11:04:21;;;;;;;44.97;26.90;;;6.80;99.90;;;;;;5091196;28;20263;-75
2020/12/18 11:06:48;;;;;;;44.60;26.37;;;6.80;99.90;;;;;;5093905;28;20616;-73
2020/12/18 11:09:15;;;;;;;44.87;27.60;;;6.80;99.90;;;;;;5097558;28;20201;-74
2020/12/18 11:11:41;;;;;;;45.03;27.23;;;6.80;99.90;;;;;;5091150;28;20229;-74
2020/12/18 11:14:09;;;;;;;45.33;26.43;;;6.80;99.90;;;;;;5081475;28;20228;-75
2020/12/18 11:16:35;;;;;;;44.27;26.83;;;6.90;99.90;;;;;;5095554;28;20280;-76
2020/12/18 11:19:03;;;;;;;42.60;26.20;;;6.90;99.90;;;;;;5086328;28;20209;-75
2020/12/18 11:21:30;;;;;;;46.83;27.67;;;6.90;99.90;;;;;;5089975;28;20208;-76
2020/12/18 11:23:58;;;;;;;45.80;27.57;;;6.90;99.90;;;;;;5088955;28;20201;-72
2020/12/18 11:26:25;;;;;;;42.97;25.87;;;7.00;99.90;;;;;;5094353;28;20287;-73
2020/12/18 11:28:52;;;;;;;48.77;26.73;;;7.00;99.90;;;;;;5092099;28;20204;-74
2020/12/18 11:31:19;;;;;;;46.77;26.97;;;6.90;99.90;;;;;;5086692;28;20260;-73
2020/12/18 11:33:47;;;;;;;46.27;27.57;;;6.90;99.90;;;;;;5085815;28;20240;-75
2020/12/18 11:36:14;;;;;;;48.43;28.60;;;7.00;99.90;;;;;;5097322;28;20638;-75
2020/12/18 11:38:42;;;;;;;49.40;28.10;;;7.00;99.90;;;;;;5086785;28;20387;-76
2020/12/18 11:41:10;;;;;;;45.63;27.80;;;7.00;99.90;;;;;;5080982;28;20323;-76
2020/12/18 11:43:36;;;;;;;44.67;26.53;;;7.10;99.90;;;;;;5083679;28;20212;-75
2020/12/18 11:46:03;;;;;;;46.90;28.27;;;7.10;99.90;;;;;;5090039;28;20209;-73
2020/12/18 11:48:30;;;;;;;50.63;29.73;;;7.20;99.90;;;;;;5088207;28;20209;-75
2020/12/18 11:50:57;;;;;;;50.80;27.43;;;7.30;99.90;;;;;;5095022;28;20209;-75
2020/12/18 11:53:24;;;;;;;45.50;27.57;;;7.40;99.90;;;;;;5095943;28;20217;-77
2020/12/18 11:55:50;;;;;;;47.67;28.43;;;7.40;99.90;;;;;;5101256;28;20209;-76
2020/12/18 11:58:17;;;;;;;45.40;27.70;;;7.40;99.90;;;;;;5089193;28;20243;-75
2020/12/18 12:00:44;;;;;;;44.93;27.97;;;7.40;99.90;;;;;;5086837;28;20208;-76
2020/12/18 12:03:10;;;;;;;45.87;27.87;;;7.40;99.90;;;;;;5083546;28;20912;-75
2020/12/18 12:05:37;;;;;;;44.90;26.83;;;7.40;99.90;;;;;;5081955;28;20608;-76
2020/12/18 12:08:03;;;;;;;44.33;27.00;;;7.40;99.90;;;;;;5084777;28;20276;-77
2020/12/18 12:10:34;;;;;;;45.70;28.17;;;7.40;99.90;;;;;;5083482;28;20205;-76
2020/12/18 12:13:00;;;;;;;41.30;25.67;;;7.40;99.90;;;;;;5085727;28;20240;-75
2020/12/18 12:15:27;;;;;;;41.13;26.60;;;7.40;99.90;;;;;;5090153;28;20251;-74
2020/12/18 12:17:53;;;;;;;46.90;29.17;;;7.40;99.90;;;;;;5087674;28;20228;-74
2020/12/18 12:20:21;;;;;;;46.30;26.87;;;7.40;99.90;;;;;;5082444;28;20235;-74
2020/12/18 12:22:48;;;;;;;44.40;26.30;;;7.40;99.90;;;;;;5085101;28;20209;-74
2020/12/18 12:25:14;;;;;;;41.47;26.90;;;7.40;99.90;;;;;;5083132;28;20207;-74
2020/12/18 12:27:42;;;;;;;44.60;27.13;;;7.40;99.90;;;;;;5085733;28;20228;-75
2020/12/18 12:30:10;;;;;;;46.73;28.37;;;7.40;99.90;;;;;;5085372;28;20205;-76
2020/12/18 12:32:37;;;;;;;39.97;25.87;;;7.40;99.90;;;;;;5090576;28;20212;-74
2020/12/18 12:35:04;;;;;;;42.30;27.40;;;7.40;99.90;;;;;;5083498;28;20229;-73
2020/12/18 12:37:31;;;;;;;44.53;27.90;;;7.30;99.90;;;;;;5087442;28;20604;-73
2020/12/18 12:39:58;;;;;;;44.17;27.57;;;7.30;99.90;;;;;;5082079;28;20220;-73
2020/12/18 12:42:24;;;;;;;45.73;27.80;;;7.30;99.90;;;;;;5083305;28;20807;-73